Terminal Aerodrome Forecast
Issued by NWS

Home | Current Version | Previous Version | Text Only | Print | Product List | Glossary On
Versions: 1 2 3 4 5 6 7 8 9 10 11 12 13 14 15
000
FTUS41 KBGM 192323 AAA
TAFRME
TAF AMD
KRME 192323Z 1923/2018 29007KT P6SM SCT060
     FM200200 29007KT P6SM BKN050
     FM200400 29007KT P6SM BKN030
     FM201100 31006KT P6SM SCT025=

USA.gov is the U.S. government's official web portal to all federal, state and local government web resources and services.